createdAt,value
2018-07-30T00:00:13.572Z,75.06
2018-07-30T00:01:13.313Z,75.06
2018-07-30T00:02:13.318Z,75.16
2018-07-30T00:03:13.583Z,75.35
2018-07-30T00:04:13.324Z,75.35
2018-07-30T00:05:13.637Z,75.16
2018-07-30T00:06:13.638Z,75.64
2018-07-30T00:07:13.597Z,75.16
2018-07-30T00:08:13.593Z,75.45
2018-07-30T00:09:13.609Z,75.26
2018-07-30T00:10:13.600Z,74.96
2018-07-30T00:11:13.352Z,75.16
2018-07-30T00:12:13.349Z,74.77
2018-07-30T00:13:13.356Z,74.87
2018-07-30T00:14:13.692Z,75.16
2018-07-30T00:15:13.363Z,75.35
2018-07-30T00:16:13.625Z,74.96
2018-07-30T00:17:13.379Z,74.87
2018-07-30T00:18:14.424Z,75.06
2018-07-30T00:19:13.627Z,75.06
2018-07-30T00:20:13.640Z,75.06
2018-07-30T00:21:13.636Z,75.16
2018-07-30T00:22:13.685Z,75.06
2018-07-30T00:23:13.661Z,74.68
2018-07-30T00:24:13.644Z,75.16
2018-07-30T00:25:13.394Z,75.16
2018-07-30T00:26:13.406Z,74.38
2018-07-30T00:27:13.657Z,75.16
2018-07-30T00:28:13.673Z,74.87
2018-07-30T00:29:13.671Z,75.35
2018-07-30T00:30:13.417Z,75.16
2018-07-30T00:31:13.423Z,75.35
2018-07-30T00:32:13.427Z,75.74
2018-07-30T00:33:13.423Z,75.54
2018-07-30T00:34:13.418Z,75.45
2018-07-30T00:35:13.674Z,75.45
2018-07-30T00:36:13.677Z,76.03
2018-07-30T00:37:13.423Z,75.84
2018-07-30T00:38:13.690Z,76.12
2018-07-30T00:39:13.446Z,75.84
2018-07-30T00:40:13.690Z,76.12
2018-07-30T00:41:13.702Z,76.37
2018-07-30T00:42:13.694Z,76.22
2018-07-30T00:43:13.449Z,76.57
2018-07-30T00:44:13.454Z,76.37
2018-07-30T00:45:13.472Z,76.8
2018-07-30T00:46:13.462Z,76.57
2018-07-30T00:47:13.724Z,76.57
2018-07-30T00:48:13.735Z,76.76
2018-07-30T00:49:13.722Z,76.76
2018-07-30T00:50:13.722Z,76.76
2018-07-30T00:51:13.737Z,76.47
2018-07-30T00:52:13.488Z,76.57
2018-07-30T00:53:13.477Z,76.57
2018-07-30T00:54:13.478Z,76.37
2018-07-30T00:55:13.742Z,76.67
2018-07-30T00:56:13.738Z,76.86
2018-07-30T00:57:13.749Z,76.57
2018-07-30T00:58:13.744Z,76.57
2018-07-30T00:59:13.754Z,76.18
2018-07-30T01:00:13.752Z,76.67
2018-07-30T01:01:13.500Z,76.95
2018-07-30T01:02:13.501Z,77.25
2018-07-30T01:03:13.764Z,77.34
2018-07-30T01:04:13.777Z,77.34
2018-07-30T01:05:13.775Z,77.34
2018-07-30T01:06:13.510Z,77.34
2018-07-30T01:07:13.803Z,77.15
2018-07-30T01:08:13.791Z,77.44
2018-07-30T01:09:13.524Z,77.15
2018-07-30T01:10:13.908Z,77.15
2018-07-30T01:11:13.811Z,77.15
2018-07-30T01:12:13.639Z,76.95
2018-07-30T01:13:13.540Z,77.25
2018-07-30T01:14:13.793Z,77.15
2018-07-30T01:15:13.546Z,77.73
2018-07-30T01:16:13.808Z,77.63
2018-07-30T01:17:13.547Z,77.15
2018-07-30T01:18:13.810Z,77.15
2018-07-30T01:19:13.805Z,77.34
2018-07-30T01:20:13.829Z,76.67
2018-07-30T01:21:13.828Z,76.57
2018-07-30T01:22:13.560Z,77.15
2018-07-30T01:23:13.832Z,77.15
2018-07-30T01:24:13.835Z,77.73
2018-07-30T01:25:13.573Z,77.92
2018-07-30T01:26:13.852Z,77.92
2018-07-30T01:27:13.590Z,78.11
2018-07-30T01:28:13.834Z,77.44
2018-07-30T01:29:13.858Z,77.73
2018-07-30T01:30:13.585Z,77.63
2018-07-30T01:31:13.840Z,77.83
2018-07-30T01:32:13.587Z,77.92
2018-07-30T01:33:13.591Z,78.08
2018-07-30T01:34:13.593Z,77.88
2018-07-30T01:35:13.595Z,78.08
2018-07-30T01:36:13.861Z,78.66
2018-07-30T01:37:13.862Z,79.14
2018-07-30T01:38:13.859Z,78.85
2018-07-30T01:39:13.607Z,79.24
2018-07-30T01:40:13.869Z,79.14
2018-07-30T01:41:13.618Z,79.24
2018-07-30T01:42:13.876Z,79.33
2018-07-30T01:43:13.884Z,79.33
2018-07-30T01:44:13.880Z,79.24
2018-07-30T01:45:13.629Z,79.43
2018-07-30T01:46:13.884Z,79.24
2018-07-30T01:47:13.883Z,79.91
2018-07-30T01:48:13.636Z,79.81
2018-07-30T01:49:13.640Z,79.81
2018-07-30T01:50:13.633Z,79.72
2018-07-30T01:51:13.898Z,79.52
2018-07-30T01:52:13.892Z,80
2018-07-30T01:53:13.650Z,79.52
2018-07-30T01:54:13.672Z,79.91
2018-07-30T01:55:13.905Z,79.81
2018-07-30T01:56:13.660Z,79.14
2018-07-30T01:57:13.657Z,78.94
2018-07-30T01:58:13.914Z,79.33
2018-07-30T01:59:13.661Z,79.43
2018-07-30T02:00:13.670Z,79.24
2018-07-30T02:01:13.667Z,79.04
2018-07-30T02:02:13.671Z,79.04
2018-07-30T02:03:13.930Z,79.04
2018-07-30T02:04:13.681Z,79.14
2018-07-30T02:05:13.938Z,78.94
2018-07-30T02:06:13.938Z,79.14
2018-07-30T02:07:13.951Z,79.24
2018-07-30T02:08:13.948Z,79.43
2018-07-30T02:09:13.941Z,79.14
2018-07-30T02:10:13.708Z,79.81
2018-07-30T02:11:13.954Z,80
2018-07-30T02:12:13.969Z,80.49
2018-07-30T02:13:13.980Z,80.68
2018-07-30T02:14:13.706Z,80.68
2018-07-30T02:15:13.961Z,80.58
2018-07-30T02:16:13.708Z,80.87
2018-07-30T02:17:13.978Z,80.64
2018-07-30T02:18:13.971Z,80.68
2018-07-30T02:19:14.222Z,81.07
2018-07-30T02:20:13.989Z,80.83
2018-07-30T02:21:13.987Z,81.12
2018-07-30T02:22:13.744Z,81.32
2018-07-30T02:23:13.997Z,81.8
2018-07-30T02:24:13.995Z,81.51
2018-07-30T02:25:14.003Z,81.8
2018-07-30T02:26:13.735Z,81.8
2018-07-30T02:27:13.999Z,82.09
2018-07-30T02:28:14.005Z,82.09
2018-07-30T02:29:13.741Z,82.09
2018-07-30T02:30:14.024Z,82.67
2018-07-30T02:31:13.751Z,82.57
2018-07-30T02:32:14.005Z,82.48
2018-07-30T02:33:13.795Z,82.48
2018-07-30T02:34:14.020Z,82.67
2018-07-30T02:35:14.022Z,83.34
2018-07-30T02:36:14.020Z,83.34
2018-07-30T02:37:14.021Z,84.07
2018-07-30T02:38:14.038Z,83.78
2018-07-30T02:39:14.028Z,83.98
2018-07-30T02:40:14.030Z,84.17
2018-07-30T02:41:14.024Z,84.27
2018-07-30T02:42:13.786Z,83.98
2018-07-30T02:43:13.781Z,83.88
2018-07-30T02:44:14.055Z,83.98
2018-07-30T02:45:14.050Z,83.25
2018-07-30T02:46:14.044Z,83.53
2018-07-30T02:47:13.798Z,83.53
2018-07-30T02:48:14.058Z,83.53
2018-07-30T02:49:14.043Z,83.25
2018-07-30T02:50:14.058Z,83.73
2018-07-30T02:51:14.069Z,83.15
2018-07-30T02:52:14.054Z,83.34
2018-07-30T02:53:14.064Z,83.25
2018-07-30T02:54:14.075Z,83.53
2018-07-30T02:55:14.076Z,83.34
2018-07-30T02:56:14.077Z,83.05
2018-07-30T02:57:13.813Z,83.15
2018-07-30T02:58:13.817Z,83.34
2018-07-30T02:59:13.830Z,82.86
2018-07-30T03:00:13.826Z,83.63
2018-07-30T03:01:14.074Z,83.34
2018-07-30T03:02:13.839Z,83.25
2018-07-30T03:03:13.824Z,83.05
2018-07-30T03:04:13.830Z,83.53
2018-07-30T03:05:14.084Z,83.25
2018-07-30T03:06:14.094Z,83.4
2018-07-30T03:07:13.856Z,83.98
2018-07-30T03:08:14.096Z,83.88
2018-07-30T03:09:14.119Z,84.07
2018-07-30T03:10:13.862Z,83.98
2018-07-30T03:11:14.102Z,84.07
2018-07-30T03:12:13.866Z,84.65
2018-07-30T03:13:14.103Z,84.46
2018-07-30T03:14:13.848Z,84.65
2018-07-30T03:15:13.911Z,85.42
2018-07-30T03:16:13.856Z,85.81
2018-07-30T03:17:13.853Z,85.67
2018-07-30T03:18:14.124Z,85.13
2018-07-30T03:19:14.369Z,85.42
2018-07-30T03:20:14.121Z,85.42
2018-07-30T03:21:13.872Z,85.33
2018-07-30T03:22:13.868Z,85.52
2018-07-30T03:23:13.875Z,85.23
2018-07-30T03:24:13.882Z,85.38
2018-07-30T03:25:13.876Z,85.77
2018-07-30T03:26:14.131Z,85.57
2018-07-30T03:27:14.139Z,86.05
2018-07-30T03:28:14.135Z,85.96
2018-07-30T03:29:14.139Z,85.77
2018-07-30T03:30:14.143Z,86.35
2018-07-30T03:31:14.177Z,86.15
2018-07-30T03:32:14.151Z,85.96
2018-07-30T03:33:14.156Z,85.42
2018-07-30T03:34:13.899Z,85.71
2018-07-30T03:35:14.168Z,85.52
2018-07-30T03:36:13.904Z,85.52
2018-07-30T03:37:14.169Z,85.23
2018-07-30T03:38:14.176Z,85.33
2018-07-30T03:39:13.905Z,86
2018-07-30T03:40:14.167Z,86
2018-07-30T03:41:13.909Z,86.05
2018-07-30T03:42:14.210Z,86.05
2018-07-30T03:43:14.188Z,85.86
2018-07-30T03:44:13.924Z,86.25
2018-07-30T03:45:14.184Z,86.44
2018-07-30T03:46:14.179Z,86.54
2018-07-30T03:47:13.922Z,86.92
2018-07-30T03:48:14.185Z,86.25
2018-07-30T03:49:14.334Z,86.54
2018-07-30T03:50:14.193Z,85.96
2018-07-30T03:51:13.941Z,85.86
2018-07-30T03:52:13.939Z,86.05
2018-07-30T03:53:14.202Z,86.25
2018-07-30T03:54:14.220Z,86.25
2018-07-30T03:55:14.202Z,86.44
2018-07-30T03:56:13.946Z,86.25
2018-07-30T03:57:13.949Z,86.25
2018-07-30T03:58:13.955Z,86.35
2018-07-30T03:59:14.204Z,85.67
2018-07-30T04:00:14.118Z,86.05
2018-07-30T04:01:14.208Z,86.1
2018-07-30T04:02:13.951Z,85.71
2018-07-30T04:03:14.208Z,85.61
2018-07-30T04:04:14.216Z,85.42
2018-07-30T04:05:14.225Z,85.91
2018-07-30T04:06:14.432Z,85.42
2018-07-30T04:07:14.028Z,85.81
2018-07-30T04:08:14.227Z,85.71
2018-07-30T04:09:14.229Z,85.81
2018-07-30T04:10:14.240Z,85.52
2018-07-30T04:11:14.235Z,85.03
2018-07-30T04:12:14.237Z,85.13
2018-07-30T04:13:14.253Z,85.03
2018-07-30T04:14:13.981Z,84.94
2018-07-30T04:15:13.977Z,84.75
2018-07-30T04:16:13.982Z,85.61
2018-07-30T04:17:14.243Z,85.47
2018-07-30T04:18:14.247Z,86.1
2018-07-30T04:19:14.244Z,85.91
2018-07-30T04:20:14.244Z,85.96
2018-07-30T04:21:14.267Z,86.54
2018-07-30T04:22:14.355Z,87.02
2018-07-30T04:23:14.265Z,86.82
2018-07-30T04:24:14.272Z,87.4
2018-07-30T04:25:14.264Z,87.88
2018-07-30T04:26:14.034Z,87.6
2018-07-30T04:27:14.011Z,86.44
2018-07-30T04:28:14.015Z,86.05
2018-07-30T04:29:14.016Z,84.94
2018-07-30T04:30:14.016Z,83.88
2018-07-30T04:31:14.281Z,83.63
2018-07-30T04:32:14.018Z,82.09
2018-07-30T04:33:14.290Z,81.35
2018-07-30T04:34:14.289Z,80.58
2018-07-30T04:35:14.283Z,80.49
2018-07-30T04:36:14.292Z,79.91
2018-07-30T04:37:14.035Z,79.56
2018-07-30T04:38:14.291Z,79.17
2018-07-30T04:39:14.296Z,79.08
2018-07-30T04:40:14.043Z,78.31
2018-07-30T04:41:14.302Z,78.15
2018-07-30T04:42:14.306Z,77.19
2018-07-30T04:43:14.314Z,77.38
2018-07-30T04:44:14.315Z,76.61
2018-07-30T04:45:14.318Z,76.7
2018-07-30T04:46:14.323Z,77.57
2018-07-30T04:47:14.327Z,77.57
2018-07-30T04:48:14.331Z,77.57
2018-07-30T04:49:14.422Z,77.19
2018-07-30T04:50:14.400Z,77.28
2018-07-30T04:51:14.355Z,77.38
2018-07-30T04:52:14.088Z,76.7
2018-07-30T04:53:14.094Z,75.26
2018-07-30T04:54:14.116Z,75.2
2018-07-30T04:55:14.410Z,75.1
2018-07-30T04:56:14.361Z,74.52
2018-07-30T04:57:14.105Z,73.36
2018-07-30T04:58:14.371Z,72.72
2018-07-30T04:59:14.114Z,72.75
2018-07-30T05:00:14.120Z,71.5
2018-07-30T05:01:14.384Z,71.4
2018-07-30T05:02:14.130Z,70.24
2018-07-30T05:03:14.144Z,70.08
2018-07-30T05:04:14.407Z,69.21
2018-07-30T05:05:14.403Z,68.76
2018-07-30T05:06:14.401Z,68.85
2018-07-30T05:07:14.424Z,68.66
2018-07-30T05:08:14.434Z,68.56
2018-07-30T05:09:14.449Z,68.18
2018-07-30T05:10:14.425Z,67.79
2018-07-30T05:11:14.537Z,67.69
2018-07-30T05:12:14.450Z,67.72
2018-07-30T05:13:14.437Z,67.69
2018-07-30T05:14:14.434Z,67.69
2018-07-30T05:15:14.194Z,67.79
2018-07-30T05:16:14.462Z,67.88
2018-07-30T05:17:14.464Z,67.69
2018-07-30T05:18:14.213Z,68.66
2018-07-30T05:19:14.527Z,69.59
2018-07-30T05:20:14.497Z,70.18
2018-07-30T05:21:14.491Z,71.11
2018-07-30T05:22:14.514Z,72.08
2018-07-30T05:23:14.241Z,73.26
2018-07-30T05:24:14.504Z,74.32
2018-07-30T05:25:14.504Z,75.58
2018-07-30T05:26:14.266Z,75.45
2018-07-30T05:27:14.518Z,75.84
2018-07-30T05:28:14.510Z,75.93
2018-07-30T05:29:14.523Z,75.93
2018-07-30T05:30:14.528Z,76.22
2018-07-30T05:31:14.531Z,76.03
2018-07-30T05:32:14.549Z,76.22
2018-07-30T05:33:14.577Z,76.22
2018-07-30T05:34:14.536Z,76.51
2018-07-30T05:35:14.553Z,77
2018-07-30T05:36:14.554Z,76.8
2018-07-30T05:37:14.337Z,76.7
2018-07-30T05:38:14.551Z,76.03
2018-07-30T05:39:14.554Z,75.06
2018-07-30T05:40:14.569Z,74.48
2018-07-30T05:41:14.312Z,72.04
2018-07-30T05:42:14.311Z,70.34
2018-07-30T05:43:14.564Z,68.43
2018-07-30T05:44:14.593Z,66.95
2018-07-30T05:45:14.330Z,65.43
2018-07-30T05:46:14.338Z,64.3
2018-07-30T05:47:14.589Z,62.39
2018-07-30T05:48:14.605Z,60.58
2018-07-30T05:49:16.215Z,59.74
2018-07-30T05:50:14.715Z,58.31
2018-07-30T05:51:14.610Z,56.97
2018-07-30T05:52:14.627Z,56.87
2018-07-30T05:53:14.622Z,56.12
2018-07-30T05:54:14.647Z,55.64
2018-07-30T05:55:14.636Z,55.64
2018-07-30T05:56:14.654Z,56.05
2018-07-30T05:57:14.402Z,56.12
2018-07-30T05:58:14.659Z,55.47
2018-07-30T05:59:14.674Z,54.5
2018-07-30T06:00:14.668Z,54.01
2018-07-30T06:01:14.691Z,54.3
2018-07-30T06:02:14.688Z,53.26
2018-07-30T06:03:14.694Z,53.85
2018-07-30T06:04:14.698Z,52.7
2018-07-30T06:05:14.702Z,52.4
2018-07-30T06:06:14.718Z,51.46
2018-07-30T06:07:14.722Z,51.36
2018-07-30T06:08:14.733Z,51.56
2018-07-30T06:09:14.477Z,51.07
2018-07-30T06:10:14.481Z,51.56
2018-07-30T06:11:14.491Z,51.26
2018-07-30T06:12:14.760Z,50.68
2018-07-30T06:13:14.776Z,50.31
2018-07-30T06:14:14.520Z,49.66
2018-07-30T06:15:14.775Z,49.07
2018-07-30T06:16:14.783Z,49.07
2018-07-30T06:17:14.789Z,49.66
2018-07-30T06:18:14.803Z,49.66
2018-07-30T06:19:14.804Z,49.17
2018-07-30T06:20:14.837Z,49.07
2018-07-30T06:21:14.817Z,48.58
2018-07-30T06:22:14.582Z,48.97
2018-07-30T06:23:14.849Z,48.32
2018-07-30T06:24:14.599Z,48.41
2018-07-30T06:25:14.848Z,48.02
2018-07-30T06:26:14.852Z,48.51
2018-07-30T06:27:14.627Z,47.44
2018-07-30T06:28:14.612Z,47.83
2018-07-30T06:29:14.624Z,48.12
2018-07-30T06:30:14.895Z,47.46
2018-07-30T06:31:14.911Z,46.58
2018-07-30T06:32:14.903Z,46.21
2018-07-30T06:33:14.913Z,46.33
2018-07-30T06:34:14.939Z,46.14
2018-07-30T06:35:14.957Z,46.01
2018-07-30T06:36:14.943Z,46.23
2018-07-30T06:37:14.685Z,46.21
2018-07-30T06:38:14.966Z,45.92
2018-07-30T06:39:14.701Z,45.84
2018-07-30T06:40:14.711Z,45.36
2018-07-30T06:41:14.977Z,45.55
2018-07-30T06:42:14.727Z,45.55
2018-07-30T06:43:14.738Z,45.06
2018-07-30T06:44:15.016Z,44.01
2018-07-30T06:45:15.016Z,43.05
2018-07-30T06:46:15.021Z,43.54
2018-07-30T06:47:14.774Z,43.56
2018-07-30T06:48:15.041Z,42.88
2018-07-30T06:49:14.790Z,42.97
2018-07-30T06:50:15.059Z,43.17
2018-07-30T06:51:15.065Z,42.58
2018-07-30T06:52:15.079Z,42.21
2018-07-30T06:53:15.187Z,41.94
2018-07-30T06:54:14.860Z,41.92
2018-07-30T06:55:14.855Z,42.21
2018-07-30T06:56:15.120Z,41.45
2018-07-30T06:57:15.119Z,41.45
2018-07-30T06:58:14.888Z,41.05
2018-07-30T06:59:14.890Z,41.27
2018-07-30T07:00:15.148Z,40.19
2018-07-30T07:01:15.179Z,40.48
2018-07-30T07:02:14.930Z,40.7
2018-07-30T07:03:15.279Z,40.11
2018-07-30T07:04:15.203Z,40.01
2018-07-30T07:05:14.952Z,40.31
2018-07-30T07:06:15.203Z,40.41
2018-07-30T07:07:14.969Z,40.72
2018-07-30T07:08:15.232Z,41.49
2018-07-30T07:09:15.237Z,40.21
2018-07-30T07:10:15.245Z,39.82
2018-07-30T07:11:15.000Z,39.35
2018-07-30T07:12:15.013Z,38.98
2018-07-30T07:13:15.275Z,38.7
2018-07-30T07:14:15.283Z,37.84
2018-07-30T07:15:15.294Z,38.13
2018-07-30T07:16:15.053Z,37.84
2018-07-30T07:17:15.342Z,39.01
2018-07-30T07:18:15.326Z,39.58
2018-07-30T07:19:15.385Z,41.43
2018-07-30T07:20:15.358Z,41.96
2018-07-30T07:21:15.425Z,42.5
2018-07-30T07:22:15.390Z,43.95
2018-07-30T07:23:15.396Z,44.71
2018-07-30T07:24:15.410Z,45.4
2018-07-30T07:25:15.410Z,45.89
2018-07-30T07:26:15.168Z,45.89
2018-07-30T07:27:15.487Z,45.28
2018-07-30T07:28:15.449Z,44.23
2018-07-30T07:29:15.495Z,43.63
2018-07-30T07:30:15.457Z,42.29
2018-07-30T07:31:15.192Z,41.42
2018-07-30T07:32:15.468Z,41.37
2018-07-30T07:33:15.209Z,41.47
2018-07-30T07:34:15.225Z,40.58
2018-07-30T07:35:15.493Z,40.41
2018-07-30T07:36:15.507Z,39.45
2018-07-30T07:37:15.243Z,39.95
2018-07-30T07:38:15.517Z,39.07
2018-07-30T07:39:15.278Z,39.29
2018-07-30T07:40:15.665Z,38.7
2018-07-30T07:41:15.283Z,37.63
2018-07-30T07:42:15.285Z,38.64
2018-07-30T07:43:15.321Z,37.77
2018-07-30T07:44:15.312Z,37.67
2018-07-30T07:45:15.317Z,37.3
2018-07-30T07:46:15.621Z,36.51
2018-07-30T07:47:15.638Z,35.54
2018-07-30T07:48:15.847Z,35.17
2018-07-30T07:49:15.620Z,35.17
2018-07-30T07:50:15.402Z,35.28
2018-07-30T07:51:15.813Z,35.28
2018-07-30T07:52:15.651Z,35.88
2018-07-30T07:53:15.398Z,36.84
2018-07-30T07:54:15.662Z,36.8
2018-07-30T07:55:15.680Z,36.22
2018-07-30T07:56:15.427Z,36.61
2018-07-30T07:57:15.457Z,36.61
2018-07-30T07:58:15.700Z,36.8
2018-07-30T07:59:15.714Z,36.53
2018-07-30T08:00:15.724Z,36.63
2018-07-30T08:01:15.733Z,35.35
2018-07-30T08:02:15.745Z,35.66
2018-07-30T08:03:15.767Z,35.48
2018-07-30T08:04:15.767Z,35.48
2018-07-30T08:05:15.522Z,34.51
2018-07-30T08:06:15.981Z,34.3
2018-07-30T08:07:15.549Z,35.18
2018-07-30T08:08:15.838Z,34.69
2018-07-30T08:09:15.821Z,34.22
2018-07-30T08:10:15.830Z,34.31
2018-07-30T08:11:15.590Z,34.81
2018-07-30T08:12:15.878Z,35.38
2018-07-30T08:13:15.613Z,35.28
2018-07-30T08:14:15.618Z,34.59
2018-07-30T08:15:15.640Z,35.2
2018-07-30T08:16:15.680Z,33.64
2018-07-30T08:17:15.652Z,32.65
2018-07-30T08:18:15.924Z,32.59
2018-07-30T08:19:15.939Z,32.39
2018-07-30T08:20:15.949Z,32.4
2018-07-30T08:21:15.952Z,32.52
2018-07-30T08:22:15.768Z,31.43
2018-07-30T08:23:15.740Z,31.41
2018-07-30T08:24:15.984Z,31.43
2018-07-30T08:25:16.002Z,31.71
2018-07-30T08:26:16.019Z,31.91
2018-07-30T08:27:16.020Z,32.01
2018-07-30T08:28:15.776Z,31.51
2018-07-30T08:29:16.125Z,30.63
2018-07-30T08:30:16.856Z,30.52
2018-07-30T08:31:16.101Z,30.82
2018-07-30T08:32:16.082Z,31.9
2018-07-30T08:33:16.100Z,30.71
2018-07-30T08:34:16.104Z,31.1
2018-07-30T08:35:16.116Z,30.61
2018-07-30T08:36:16.127Z,31.41
2018-07-30T08:37:15.880Z,30.83
2018-07-30T08:38:16.150Z,30.16
2018-07-30T08:39:16.306Z,30.26
2018-07-30T08:40:16.171Z,30.15
2018-07-30T08:41:15.927Z,30.15
2018-07-30T08:42:16.281Z,27.69
2018-07-30T08:43:16.209Z,28.18
2018-07-30T08:44:16.220Z,27.79
2018-07-30T08:45:15.976Z,27.39
2018-07-30T08:46:16.283Z,26.81
2018-07-30T08:47:15.990Z,27.12
2018-07-30T08:48:16.269Z,28.72
2018-07-30T08:49:16.025Z,28.03
2018-07-30T08:50:16.177Z,28.11
2018-07-30T08:51:16.049Z,28.81
2018-07-30T08:52:16.307Z,28.8
2018-07-30T08:53:16.334Z,29.09
2018-07-30T08:54:16.338Z,30.65
2018-07-30T08:55:16.359Z,29.93
2018-07-30T08:56:16.431Z,30.21
2018-07-30T08:57:16.371Z,31.07
2018-07-30T08:58:16.394Z,32.72
2018-07-30T08:59:16.139Z,34.03
2018-07-30T09:00:16.142Z,36.95
2018-07-30T09:01:16.419Z,38.21
2018-07-30T09:02:16.426Z,39.84
2018-07-30T09:03:16.178Z,38.62
2018-07-30T09:04:16.447Z,39.88
2018-07-30T09:05:16.462Z,40.55
2018-07-30T09:06:16.464Z,39.56
2018-07-30T09:07:16.325Z,39.96
2018-07-30T09:08:16.229Z,39.94
2018-07-30T09:09:16.269Z,40.43
2018-07-30T09:10:16.272Z,40.82
2018-07-30T09:11:16.520Z,41.21
2018-07-30T09:12:16.526Z,41.58
2018-07-30T09:13:16.541Z,42.17
2018-07-30T09:14:16.545Z,42.56
2018-07-30T09:15:16.566Z,42.07
2018-07-30T09:16:16.566Z,41.86
2018-07-30T09:17:16.326Z,41.86
2018-07-30T09:18:16.398Z,43.69
2018-07-30T09:19:16.333Z,43.69
2018-07-30T09:20:16.339Z,41.64
2018-07-30T09:21:16.620Z,39.98
2018-07-30T09:22:16.357Z,41.74
2018-07-30T09:23:16.627Z,40.27
2018-07-30T09:24:16.628Z,40.25
2018-07-30T09:25:16.634Z,40.37
2018-07-30T09:26:16.650Z,38.9
2018-07-30T09:27:16.653Z,39.69
2018-07-30T09:28:16.660Z,37.54
2018-07-30T09:29:16.408Z,37.34
2018-07-30T09:30:16.680Z,35.99
2018-07-30T09:31:16.683Z,35.5
2018-07-30T09:32:16.430Z,35.77
2018-07-30T09:33:16.697Z,36.75
2018-07-30T09:34:16.703Z,37.06
2018-07-30T09:35:17.527Z,37.26
2018-07-30T09:36:16.722Z,37.37
2018-07-30T09:37:16.463Z,37.57
2018-07-30T09:38:16.729Z,37.67
2018-07-30T09:39:16.839Z,39.04
2018-07-30T09:40:16.745Z,36.9
2018-07-30T09:41:16.775Z,36.61
2018-07-30T09:42:16.508Z,37.81
2018-07-30T09:43:16.512Z,36.71
2018-07-30T09:44:16.772Z,37
2018-07-30T09:45:16.785Z,36.8
2018-07-30T09:46:16.525Z,37.47
2018-07-30T09:47:16.537Z,37.08
2018-07-30T09:48:16.541Z,38.45
2018-07-30T09:49:16.548Z,38.55
2018-07-30T09:50:16.832Z,37.08
2018-07-30T09:51:16.565Z,36.69
2018-07-30T09:52:16.908Z,36.88
2018-07-30T09:53:16.853Z,37.37
2018-07-30T09:54:16.848Z,37.87
2018-07-30T09:55:16.846Z,37.47
2018-07-30T09:56:16.976Z,36.41
2018-07-30T09:57:16.612Z,36.12
2018-07-30T09:58:16.613Z,36.41
2018-07-30T09:59:16.876Z,36.71
2018-07-30T10:00:16.880Z,36.61
2018-07-30T10:01:16.641Z,36.3
2018-07-30T10:02:16.896Z,36.49
2018-07-30T10:03:16.650Z,36.4
2018-07-30T10:04:16.903Z,37.47
2018-07-30T10:05:16.657Z,36.3
2018-07-30T10:06:17.075Z,36.61
2018-07-30T10:07:16.954Z,35.83
2018-07-30T10:08:16.944Z,36.92
2018-07-30T10:09:16.699Z,38.78
2018-07-30T10:10:16.983Z,37.59
2018-07-30T10:11:16.976Z,37.77
2018-07-30T10:12:16.715Z,37.77
2018-07-30T10:13:16.712Z,37.08
2018-07-30T10:14:16.974Z,36.3
2018-07-30T10:15:16.737Z,36.8
2018-07-30T10:16:16.738Z,36.79
2018-07-30T10:17:16.743Z,35.13
2018-07-30T10:18:17.115Z,37.29
2018-07-30T10:19:17.010Z,37
2018-07-30T10:20:17.027Z,36.61
2018-07-30T10:21:16.779Z,35.44
2018-07-30T10:22:17.047Z,36.22
2018-07-30T10:23:17.057Z,34.18
2018-07-30T10:24:16.787Z,34.08
2018-07-30T10:25:16.797Z,34.47
2018-07-30T10:26:17.057Z,34.28
2018-07-30T10:27:17.069Z,35.45
2018-07-30T10:28:17.079Z,35.25
2018-07-30T10:29:17.134Z,36.24
2018-07-30T10:30:17.090Z,35.16
2018-07-30T10:31:17.114Z,34.57
2018-07-30T10:32:16.851Z,36.04
2018-07-30T10:33:16.860Z,36.72
2018-07-30T10:34:17.122Z,35.55
2018-07-30T10:35:17.121Z,37.1
2018-07-30T10:36:17.131Z,34.75
2018-07-30T10:37:17.135Z,36.22
2018-07-30T10:38:17.450Z,37.59
2018-07-30T10:39:17.151Z,38.47
2018-07-30T10:40:16.936Z,39.15
2018-07-30T10:41:17.171Z,37.19
2018-07-30T10:42:16.925Z,34.28
2018-07-30T10:43:16.926Z,33.8
2018-07-30T10:44:16.926Z,33.9
2018-07-30T10:45:16.942Z,35.29
2018-07-30T10:46:16.956Z,33.61
2018-07-30T10:47:16.949Z,33.31
2018-07-30T10:48:17.216Z,34.47
2018-07-30T10:49:16.964Z,34.67
2018-07-30T10:50:16.976Z,34.38
2018-07-30T10:51:17.234Z,34.38
2018-07-30T10:52:16.991Z,34.57
2018-07-30T10:53:17.248Z,34.28
2018-07-30T10:54:17.013Z,34.26
2018-07-30T10:55:17.265Z,34.26
2018-07-30T10:56:17.016Z,35.14
2018-07-30T10:57:17.273Z,34.65
2018-07-30T10:58:17.025Z,35.16
2018-07-30T10:59:17.287Z,36.9
2018-07-30T11:00:17.042Z,36.32
2018-07-30T11:01:17.308Z,34.94
2018-07-30T11:02:17.312Z,35.04
2018-07-30T11:03:17.083Z,35.24
2018-07-30T11:04:17.329Z,34.55
2018-07-30T11:05:17.336Z,34.16
2018-07-30T11:06:17.336Z,34.94
2018-07-30T11:07:17.349Z,34.28
2018-07-30T11:08:17.363Z,34.18
2018-07-30T11:09:17.107Z,34.18
2018-07-30T11:10:17.375Z,33.51
2018-07-30T11:11:17.372Z,32.64
2018-07-30T11:12:17.154Z,33.54
2018-07-30T11:13:17.429Z,32.27
2018-07-30T11:14:17.168Z,32.07
2018-07-30T11:15:17.400Z,32.48
2018-07-30T11:16:17.405Z,32.57
2018-07-30T11:17:17.457Z,32.74
2018-07-30T11:18:17.165Z,33.12
2018-07-30T11:19:17.431Z,34.78
2018-07-30T11:20:17.180Z,36.35
2018-07-30T11:21:17.445Z,34.18
2018-07-30T11:22:17.193Z,33.98
2018-07-30T11:23:17.196Z,33.5
2018-07-30T11:24:17.479Z,33.69
2018-07-30T11:25:17.228Z,33.59
2018-07-30T11:26:17.484Z,33.77
2018-07-30T11:27:17.292Z,33.59
2018-07-30T11:28:17.326Z,33.79
2018-07-30T11:29:17.243Z,33.98
2018-07-30T11:30:17.243Z,33.69
2018-07-30T11:31:17.509Z,33.89
2018-07-30T11:32:17.253Z,33.77
2018-07-30T11:33:17.264Z,33.79
2018-07-30T11:34:17.536Z,33.98
2018-07-30T11:35:17.548Z,34.06
2018-07-30T11:36:17.542Z,36.33
2018-07-30T11:37:17.555Z,37.61
2018-07-30T11:38:17.300Z,39.27
2018-07-30T11:39:17.308Z,37.69
2018-07-30T11:40:17.570Z,35.14
2018-07-30T11:41:17.321Z,34.16
2018-07-30T11:42:17.337Z,33.77
2018-07-30T11:43:17.362Z,33.5
2018-07-30T11:44:17.603Z,33.59
2018-07-30T11:45:17.364Z,33.02
2018-07-30T11:46:17.612Z,32.92
2018-07-30T11:47:17.641Z,32.92
2018-07-30T11:48:17.675Z,31.74
2018-07-30T11:49:17.637Z,32.34
2018-07-30T11:50:17.631Z,32.35
2018-07-30T11:51:17.642Z,32.25
2018-07-30T11:52:17.392Z,32.06
2018-07-30T11:53:17.662Z,32.74
2018-07-30T11:54:17.747Z,34.9
2018-07-30T11:55:17.701Z,32.64
2018-07-30T11:56:17.432Z,33.05
2018-07-30T11:57:17.699Z,31.38
2018-07-30T11:58:17.450Z,31.38
2018-07-30T11:59:17.697Z,31.29
2018-07-30T12:00:17.702Z,31.27
2018-07-30T12:01:17.466Z,30.98
2018-07-30T12:02:17.728Z,31.57
2018-07-30T12:03:17.732Z,31.67
2018-07-30T12:04:17.739Z,31.17
2018-07-30T12:05:17.497Z,31.27
2018-07-30T12:06:17.751Z,31.47
2018-07-30T12:07:17.767Z,31.07
2018-07-30T12:08:17.771Z,31.35
2018-07-30T12:09:17.537Z,31.55
2018-07-30T12:10:17.860Z,31.55
2018-07-30T12:11:17.793Z,31.45
2018-07-30T12:12:17.792Z,31.57
2018-07-30T12:13:17.804Z,31.07
2018-07-30T12:14:17.795Z,30.68
2018-07-30T12:15:17.559Z,30.29
2018-07-30T12:16:17.822Z,30.39
2018-07-30T12:17:17.837Z,30.87
2018-07-30T12:18:17.904Z,30.57
2018-07-30T12:19:17.860Z,30.96
2018-07-30T12:20:17.599Z,30.96
2018-07-30T12:21:17.852Z,31.16
2018-07-30T12:22:17.861Z,31.26
2018-07-30T12:23:17.859Z,31.44
2018-07-30T12:24:17.877Z,32.42
2018-07-30T12:25:17.886Z,34.86
2018-07-30T12:26:17.885Z,32.32
2018-07-30T12:27:17.891Z,32.12
2018-07-30T12:28:17.895Z,31.44
2018-07-30T12:29:17.903Z,30.94
2018-07-30T12:30:17.744Z,31.34
2018-07-30T12:31:17.662Z,31.24
2018-07-30T12:32:17.924Z,31.04
2018-07-30T12:33:17.928Z,31.83
2018-07-30T12:34:17.943Z,31.34
2018-07-30T12:35:17.946Z,31.63
2018-07-30T12:36:18.201Z,31.14
2018-07-30T12:37:17.957Z,31.06
2018-07-30T12:38:17.970Z,30.96
2018-07-30T12:39:17.980Z,31.06
2018-07-30T12:40:17.983Z,30.57
2018-07-30T12:41:17.993Z,30.57
2018-07-30T12:42:17.745Z,31.16
2018-07-30T12:43:17.997Z,32.54
2018-07-30T12:44:18.001Z,31.37
2018-07-30T12:45:18.033Z,30.4
2018-07-30T12:46:18.043Z,30.7
2018-07-30T12:47:18.050Z,30.62
2018-07-30T12:48:18.039Z,29.53
2018-07-30T12:49:18.033Z,29.34
2018-07-30T12:50:18.049Z,29.63
2018-07-30T12:51:18.144Z,29.63
2018-07-30T12:52:18.058Z,30.62
2018-07-30T12:53:18.092Z,32.68
2018-07-30T12:54:18.070Z,33.56
2018-07-30T12:55:18.090Z,32.68